Time;durP1;ratioP1;P1;durP2;ratioP2;P2;SDS_P1;SDS_P2;PMS_P1;PMS_P2;Temp;Humidity;BMP_temperature;BMP_pressure;BME280_temperature;BME280_humidity;BME280_pressure;Samples;Min_cycle;Max_cycle;Signal;HPM_P1;HPM_P2
2021/08/01 00:00:01;;;;;;;;;6.33;6.33;;;;;;;;5146885;27;45291;-76
2021/08/01 00:02:27;;;;;;;;;7.00;6.00;;;;;;;;5146826;27;44623;-75
2021/08/01 00:04:52;;;;;;;;;6.67;6.67;;;;;;;;5146168;27;44763;-77
2021/08/01 00:07:17;;;;;;;;;6.33;6.33;;;;;;;;5146628;27;45357;-76
2021/08/01 00:09:42;;;;;;;;;6.33;6.33;;;;;;;;5147221;27;45368;-76
2021/08/01 00:12:08;;;;;;;;;8.33;7.00;;;;;;;;5147861;27;44671;-75
2021/08/01 00:14:33;;;;;;;;;6.33;6.33;;;;;;;;5147182;27;45315;-75
2021/08/01 00:17:00;;;;;;;;;7.67;6.67;;;;;;;;5146975;27;45145;-76
2021/08/01 00:19:25;;;;;;;;;7.00;7.00;;;;;;;;5147259;27;46075;-76
2021/08/01 00:21:50;;;;;;;;;7.33;6.67;;;;;;;;5146010;27;45873;-76
2021/08/01 00:24:16;;;;;;;;;8.33;7.00;;;;;;;;5146609;27;44650;-75
2021/08/01 00:26:41;;;;;;;;;7.33;7.33;;;;;;;;5147213;27;44942;-77
2021/08/01 00:29:06;;;;;;;;;7.67;7.67;;;;;;;;5147001;27;45295;-76
2021/08/01 00:31:31;;;;;;;;;8.00;7.33;;;;;;;;5146126;27;45852;-76
2021/08/01 00:33:58;;;;;;;;;8.00;8.00;;;;;;;;5147169;27;44672;-76
2021/08/01 00:36:23;;;;;;;;;6.33;6.33;;;;;;;;5146567;27;45074;-76
2021/08/01 00:38:48;;;;;;;;;8.00;7.00;;;;;;;;5147112;27;45183;-76
2021/08/01 00:41:14;;;;;;;;;5.67;5.67;;;;;;;;5146909;27;44654;-75
2021/08/01 00:43:39;;;;;;;;;9.00;7.00;;;;;;;;5146961;27;44872;-76
2021/08/01 00:46:04;;;;;;;;;7.67;7.67;;;;;;;;5146112;27;47308;-76
2021/08/01 00:48:29;;;;;;;;;6.00;6.00;;;;;;;;5146698;27;46234;-75
2021/08/01 00:50:55;;;;;;;;;8.67;6.33;;;;;;;;5146090;27;44592;-76
2021/08/01 00:53:20;;;;;;;;;7.67;7.67;;;;;;;;5145744;27;44623;-76
2021/08/01 00:55:46;;;;;;;;;7.00;7.00;;;;;;;;5146838;27;44844;-76
2021/08/01 00:58:11;;;;;;;;;7.00;7.00;;;;;;;;5145700;27;44918;-75
2021/08/01 01:03:27;;;;;;;;;7.67;7.00;;;;;;;;5145007;27;44717;-76
2021/08/01 01:05:56;;;;;;;;;9.00;9.00;;;;;;;;5146287;27;44965;-75
2021/08/01 01:08:46;;;;;;;;;6.00;6.00;;;;;;;;5145759;27;47866;-76
2021/08/01 01:11:13;;;;;;;;;7.00;7.00;;;;;;;;5145126;27;44711;-76
2021/08/01 01:13:43;;;;;;;;;8.67;8.33;;;;;;;;5146705;27;44688;-76
2021/08/01 01:16:08;;;;;;;;;8.00;7.00;;;;;;;;5145507;27;44793;-76
2021/08/01 01:18:47;;;;;;;;;10.50;9.50;;;;;;;;5145282;27;45477;-76
2021/08/01 01:21:27;;;;;;;;;7.67;7.67;;;;;;;;5145089;27;44619;-76
2021/08/01 01:23:56;;;;;;;;;7.00;6.00;;;;;;;;5144017;27;45308;-76
2021/08/01 01:26:40;;;;;;;;;6.00;6.00;;;;;;;;5144919;27;44759;-75
2021/08/01 01:29:11;;;;;;;;;9.00;9.00;;;;;;;;5145087;27;46543;-76
2021/08/01 01:31:42;;;;;;;;;9.33;8.00;;;;;;;;5145081;27;44658;-76
2021/08/01 01:34:26;;;;;;;;;9.33;9.33;;;;;;;;5145447;27;44660;-75
2021/08/01 01:36:52;;;;;;;;;7.00;6.67;;;;;;;;5145778;27;45247;-75
2021/08/01 01:39:18;;;;;;;;;4.67;4.67;;;;;;;;5144657;27;46087;-76
2021/08/01 01:41:45;;;;;;;;;10.00;8.00;;;;;;;;5146008;27;44614;-77
2021/08/01 01:44:11;;;;;;;;;7.67;7.67;;;;;;;;5145709;27;44660;-76
2021/08/01 01:46:36;;;;;;;;;9.33;9.33;;;;;;;;5144749;27;45131;-76
2021/08/01 01:49:03;;;;;;;;;7.00;7.00;;;;;;;;5145560;27;45985;-76
2021/08/01 01:51:29;;;;;;;;;8.00;7.00;;;;;;;;5144587;27;44590;-75
2021/08/01 01:53:54;;;;;;;;;9.00;8.00;;;;;;;;5144453;27;45312;-76
2021/08/01 01:56:20;;;;;;;;;7.00;6.33;;;;;;;;5144944;27;45603;-76
2021/08/01 01:58:45;;;;;;;;;8.00;7.00;;;;;;;;5144983;27;45162;-76
2021/08/01 02:01:11;;;;;;;;;10.00;8.67;;;;;;;;5144164;27;44634;-76
2021/08/01 02:03:36;;;;;;;;;7.33;6.33;;;;;;;;5143193;27;44666;-76
2021/08/01 02:06:01;;;;;;;;;9.00;8.33;;;;;;;;5145931;27;44699;-76
2021/08/01 02:08:32;;;;;;;;;7.00;7.00;;;;;;;;5146031;27;48013;-76
2021/08/01 02:10:58;;;;;;;;;7.33;7.33;;;;;;;;5147111;27;44585;-76
2021/08/01 02:13:28;;;;;;;;;10.00;9.67;;;;;;;;5147181;27;44715;-75
2021/08/01 02:15:59;;;;;;;;;9.00;9.00;;;;;;;;5148615;27;44815;-76
2021/08/01 02:18:34;;;;;;;;;11.33;9.00;;;;;;;;5146876;27;45341;-76
2021/08/01 02:21:00;;;;;;;;;7.67;7.67;;;;;;;;5148296;27;44596;-77
2021/08/01 02:23:26;;;;;;;;;8.00;8.00;;;;;;;;5148621;27;44754;-76
2021/08/01 02:25:52;;;;;;;;;7.67;7.67;;;;;;;;5147719;27;44659;-75
2021/08/01 02:28:19;;;;;;;;;7.33;7.00;;;;;;;;5148507;27;45586;-75
2021/08/01 02:30:45;;;;;;;;;6.67;6.67;;;;;;;;5149436;27;44583;-77
2021/08/01 02:33:11;;;;;;;;;7.67;7.67;;;;;;;;5149365;27;44646;-76
2021/08/01 02:35:37;;;;;;;;;7.33;7.33;;;;;;;;5148165;27;47242;-76
2021/08/01 02:38:03;;;;;;;;;6.33;6.33;;;;;;;;5149157;27;45432;-76
2021/08/01 02:40:31;;;;;;;;;10.33;9.00;;;;;;;;5148165;27;44580;-76
2021/08/01 02:42:59;;;;;;;;;8.67;8.67;;;;;;;;5148442;27;44656;-76
2021/08/01 02:45:24;;;;;;;;;11.33;10.00;;;;;;;;5144069;27;45364;-76
2021/08/01 02:47:50;;;;;;;;;7.67;7.67;;;;;;;;5145413;27;45028;-76
2021/08/01 02:50:17;;;;;;;;;9.33;9.33;;;;;;;;5144507;27;45171;-75
2021/08/01 02:52:47;;;;;;;;;12.00;9.33;;;;;;;;5145041;27;44642;-77
2021/08/01 02:55:13;;;;;;;;;8.00;8.00;;;;;;;;5146699;27;46158;-75
2021/08/01 02:57:39;;;;;;;;;7.00;7.00;;;;;;;;5147992;27;45075;-76
2021/08/01 03:00:04;;;;;;;;;8.33;8.00;;;;;;;;5147963;27;44651;-76
2021/08/01 03:02:31;;;;;;;;;8.00;8.00;;;;;;;;5145188;27;45216;-76
2021/08/01 03:04:57;;;;;;;;;10.00;10.00;;;;;;;;5143642;27;45132;-75
2021/08/01 03:07:23;;;;;;;;;8.00;8.00;;;;;;;;5144434;27;45162;-75
2021/08/01 03:09:51;;;;;;;;;12.67;12.00;;;;;;;;5143200;27;44956;-75
2021/08/01 03:12:17;;;;;;;;;11.00;11.00;;;;;;;;5146128;27;44624;-75
2021/08/01 03:14:42;;;;;;;;;11.00;11.00;;;;;;;;5146383;27;44749;-75
2021/08/01 03:17:08;;;;;;;;;11.67;11.67;;;;;;;;5145947;27;47329;-75
2021/08/01 03:19:34;;;;;;;;;16.00;15.00;;;;;;;;5147127;27;44655;-77
2021/08/01 03:21:59;;;;;;;;;16.00;16.00;;;;;;;;5148673;27;44657;-76
2021/08/01 03:24:25;;;;;;;;;11.33;11.33;;;;;;;;5146397;27;46965;-76
2021/08/01 03:26:50;;;;;;;;;11.33;11.33;;;;;;;;5146171;27;45361;-75
2021/08/01 03:29:15;;;;;;;;;12.67;12.33;;;;;;;;5146604;27;44588;-75
2021/08/01 03:31:40;;;;;;;;;12.00;11.00;;;;;;;;5146814;27;44686;-76
2021/08/01 03:34:05;;;;;;;;;11.67;11.00;;;;;;;;5146795;27;45373;-75
2021/08/01 03:36:31;;;;;;;;;14.00;13.00;;;;;;;;5146246;27;48243;-76
2021/08/01 03:38:56;;;;;;;;;15.33;12.33;;;;;;;;5146823;27;44607;-76
2021/08/01 03:41:21;;;;;;;;;16.00;15.33;;;;;;;;5147784;27;44702;-75
2021/08/01 03:43:46;;;;;;;;;14.00;13.67;;;;;;;;5147431;27;45482;-75
2021/08/01 03:46:11;;;;;;;;;14.67;14.33;;;;;;;;5147640;27;45562;-76
2021/08/01 03:48:37;;;;;;;;;11.33;10.33;;;;;;;;5146809;27;45307;-76
2021/08/01 03:51:02;;;;;;;;;12.67;10.00;;;;;;;;5146591;27;45313;-75
2021/08/01 03:53:29;;;;;;;;;10.00;9.00;;;;;;;;5144268;27;46246;-75
2021/08/01 03:55:55;;;;;;;;;10.33;10.33;;;;;;;;5145797;27;47121;-76
2021/08/01 03:58:20;;;;;;;;;8.67;8.33;;;;;;;;5145950;27;44714;-76
2021/08/01 04:00:46;;;;;;;;;9.00;9.00;;;;;;;;5146851;27;44669;-76
2021/08/01 04:03:11;;;;;;;;;6.00;6.00;;;;;;;;5146096;27;47201;-75
2021/08/01 04:05:37;;;;;;;;;11.67;10.33;;;;;;;;5146540;27;45373;-75
2021/08/01 04:08:03;;;;;;;;;12.33;12.33;;;;;;;;5147040;27;44707;-75
2021/08/01 04:10:28;;;;;;;;;13.67;10.33;;;;;;;;5146271;27;44728;-76
2021/08/01 04:12:53;;;;;;;;;11.00;11.00;;;;;;;;5146451;27;45019;-75
2021/08/01 04:15:18;;;;;;;;;9.67;9.67;;;;;;;;5145425;27;45050;-76
2021/08/01 04:17:43;;;;;;;;;11.67;11.33;;;;;;;;5145685;27;44590;-75
2021/08/01 04:20:09;;;;;;;;;12.67;11.00;;;;;;;;5143829;27;44672;-75
2021/08/01 04:22:34;;;;;;;;;12.00;12.00;;;;;;;;5144767;27;44962;-76
2021/08/01 04:25:00;;;;;;;;;9.67;9.33;;;;;;;;5145757;27;44907;-76
2021/08/01 04:27:25;;;;;;;;;12.33;12.33;;;;;;;;5145268;27;44643;-76
2021/08/01 04:29:50;;;;;;;;;9.00;8.33;;;;;;;;5147038;27;44719;-75
2021/08/01 04:32:15;;;;;;;;;11.67;10.67;;;;;;;;5147924;27;44704;-75
2021/08/01 04:34:41;;;;;;;;;12.00;12.00;;;;;;;;5147599;27;46042;-75
2021/08/01 04:37:06;;;;;;;;;13.00;12.00;;;;;;;;5146646;27;45197;-75
2021/08/01 04:39:31;;;;;;;;;10.67;10.00;;;;;;;;5147010;27;44699;-76
2021/08/01 04:41:56;;;;;;;;;12.33;12.33;;;;;;;;5145958;27;44750;-75
2021/08/01 04:44:21;;;;;;;;;15.00;13.00;;;;;;;;5146595;27;46394;-76
2021/08/01 04:46:47;;;;;;;;;9.00;9.00;;;;;;;;5146391;27;44623;-76
2021/08/01 04:49:12;;;;;;;;;11.67;11.67;;;;;;;;5145624;27;44592;-75
2021/08/01 04:51:37;;;;;;;;;10.50;9.50;;;;;;;;5145839;27;45199;-75
2021/08/01 04:54:02;;;;;;;;;12.67;12.00;;;;;;;;5147011;27;46189;-75
2021/08/01 04:56:27;;;;;;;;;11.00;11.00;;;;;;;;5145712;27;45252;-75
2021/08/01 04:58:53;;;;;;;;;10.33;9.33;;;;;;;;5146966;27;44635;-76
2021/08/01 05:01:18;;;;;;;;;16.33;12.67;;;;;;;;5145841;27;45133;-75
2021/08/01 05:03:43;;;;;;;;;11.00;11.00;;;;;;;;5145635;27;46096;-75
2021/08/01 05:06:10;;;;;;;;;11.33;11.00;;;;;;;;5145109;27;45135;-76
2021/08/01 05:08:35;;;;;;;;;14.33;12.67;;;;;;;;5146387;27;44635;-76
2021/08/01 05:11:00;;;;;;;;;13.67;13.67;;;;;;;;5146706;27;45245;-75
2021/08/01 05:13:25;;;;;;;;;9.67;9.67;;;;;;;;5145334;27;46197;-75
2021/08/01 05:15:51;;;;;;;;;11.67;11.67;;;;;;;;5145568;27;44746;-75
2021/08/01 05:18:16;;;;;;;;;13.33;12.33;;;;;;;;5142816;27;44693;-76
2021/08/01 05:20:42;;;;;;;;;12.67;12.67;;;;;;;;5142355;27;45140;-75
2021/08/01 05:23:07;;;;;;;;;15.00;13.33;;;;;;;;5143458;27;46130;-76
2021/08/01 05:25:32;;;;;;;;;15.67;13.67;;;;;;;;5145590;27;45335;-76
2021/08/01 05:27:57;;;;;;;;;13.00;13.00;;;;;;;;5146484;27;44721;-75
2021/08/01 05:30:23;;;;;;;;;14.67;14.67;;;;;;;;5155166;27;45292;-75
2021/08/01 05:32:48;;;;;;;;;14.67;13.33;;;;;;;;5167087;27;46409;-75
2021/08/01 05:35:13;;;;;;;;;13.33;12.67;;;;;;;;5167170;27;44606;-76
2021/08/01 05:37:39;;;;;;;;;12.67;12.67;;;;;;;;5166828;27;44641;-76
2021/08/01 05:40:04;;;;;;;;;16.33;15.67;;;;;;;;5167459;27;45253;-76
2021/08/01 05:42:32;;;;;;;;;15.67;15.67;;;;;;;;5167460;27;44922;-75
2021/08/01 05:44:57;;;;;;;;;17.67;16.00;;;;;;;;5166951;27;44556;-75
2021/08/01 05:47:22;;;;;;;;;14.00;14.00;;;;;;;;5166494;27;44561;-75
2021/08/01 05:49:48;;;;;;;;;16.00;15.67;;;;;;;;5166449;27;45043;-76
2021/08/01 05:52:13;;;;;;;;;16.00;15.00;;;;;;;;5166607;27;45237;-75
2021/08/01 05:54:38;;;;;;;;;15.67;15.33;;;;;;;;5166420;27;45847;-75
2021/08/01 05:57:04;;;;;;;;;14.67;14.33;;;;;;;;5166711;27;44598;-75
2021/08/01 05:59:29;;;;;;;;;15.67;15.33;;;;;;;;5166534;27;45041;-75
2021/08/01 06:01:54;;;;;;;;;20.00;19.00;;;;;;;;5167127;27;45743;-76
2021/08/01 06:04:20;;;;;;;;;12.00;10.00;;;;;;;;5166031;27;45236;-76
2021/08/01 06:06:45;;;;;;;;;17.00;14.00;;;;;;;;5165584;27;44657;-76
2021/08/01 06:09:10;;;;;;;;;14.00;12.33;;;;;;;;5164888;27;45299;-75
2021/08/01 06:11:35;;;;;;;;;11.00;11.00;;;;;;;;5165463;27;47635;-76
2021/08/01 06:14:00;;;;;;;;;11.00;10.33;;;;;;;;5166032;27;44631;-76
2021/08/01 06:16:26;;;;;;;;;14.33;14.00;;;;;;;;5166309;27;44768;-75
2021/08/01 06:18:52;;;;;;;;;11.00;11.00;;;;;;;;5167214;27;44644;-76
2021/08/01 06:21:18;;;;;;;;;10.00;9.67;;;;;;;;5166235;27;48502;-76
2021/08/01 06:23:45;;;;;;;;;10.67;9.00;;;;;;;;5164952;27;44638;-76
2021/08/01 06:26:11;;;;;;;;;12.33;11.67;;;;;;;;5165294;27;44582;-75
2021/08/01 06:28:36;;;;;;;;;11.67;10.33;;;;;;;;5165725;27;44879;-76
2021/08/01 06:31:01;;;;;;;;;13.00;12.67;;;;;;;;5164967;27;45307;-76
2021/08/01 06:33:27;;;;;;;;;14.00;13.00;;;;;;;;5164946;27;45240;-76
2021/08/01 06:35:52;;;;;;;;;15.00;10.33;;;;;;;;5164404;27;45111;-76
2021/08/01 06:38:17;;;;;;;;;10.00;9.67;;;;;;;;5163217;27;45198;-75
2021/08/01 06:40:43;;;;;;;;;9.00;8.00;;;;;;;;5162162;27;46213;-75
2021/08/01 06:43:08;;;;;;;;;7.00;7.00;;;;;;;;5162892;27;45400;-75
2021/08/01 06:45:33;;;;;;;;;12.00;11.00;;;;;;;;5163517;27;44610;-75
2021/08/01 06:47:59;;;;;;;;;9.00;9.00;;;;;;;;5162688;27;44851;-75
2021/08/01 06:50:24;;;;;;;;;8.00;7.00;;;;;;;;5162276;27;48310;-75
2021/08/01 06:52:49;;;;;;;;;9.00;9.00;;;;;;;;5164674;27;44572;-75
2021/08/01 06:55:14;;;;;;;;;6.00;6.00;;;;;;;;5165294;27;44676;-75
2021/08/01 06:57:39;;;;;;;;;7.00;4.67;;;;;;;;5165139;27;44737;-75
2021/08/01 07:00:05;;;;;;;;;9.00;9.00;;;;;;;;5164547;27;45155;-75
2021/08/01 07:02:31;;;;;;;;;6.33;6.33;;;;;;;;5166027;27;45218;-75
2021/08/01 07:04:59;;;;;;;;;9.00;9.00;;;;;;;;5166340;27;44706;-75
2021/08/01 07:07:24;;;;;;;;;7.33;7.33;;;;;;;;5163123;27;45046;-75
2021/08/01 07:09:49;;;;;;;;;6.67;6.67;;;;;;;;5162430;27;45123;-75
2021/08/01 07:12:16;;;;;;;;;6.00;5.33;;;;;;;;5165103;27;44580;-75
2021/08/01 07:14:42;;;;;;;;;6.67;6.67;;;;;;;;5165992;27;44621;-76
2021/08/01 07:17:07;;;;;;;;;6.00;6.00;;;;;;;;5164045;27;45962;-75
2021/08/01 07:19:32;;;;;;;;;6.00;5.00;;;;;;;;5164823;27;45069;-75
2021/08/01 07:21:57;;;;;;;;;5.00;5.00;;;;;;;;5164340;27;44578;-76
2021/08/01 07:24:22;;;;;;;;;5.67;5.67;;;;;;;;5162619;27;44577;-75
2021/08/01 07:26:48;;;;;;;;;6.00;5.00;;;;;;;;5163999;27;46116;-75
2021/08/01 07:29:13;;;;;;;;;5.33;5.00;;;;;;;;5163173;27;45222;-75
2021/08/01 07:31:39;;;;;;;;;6.00;6.00;;;;;;;;5143212;27;46129;-75
2021/08/01 07:34:04;;;;;;;;;4.67;4.67;;;;;;;;5142217;27;44754;-75
2021/08/01 07:36:29;;;;;;;;;7.67;5.00;;;;;;;;5142696;27;45470;-76
2021/08/01 07:38:55;;;;;;;;;4.00;4.00;;;;;;;;5141045;27;45228;-75
2021/08/01 07:41:20;;;;;;;;;5.00;4.00;;;;;;;;5140460;27;45350;-75
2021/08/01 07:43:45;;;;;;;;;3.00;3.00;;;;;;;;5138873;27;44692;-75
2021/08/01 07:46:11;;;;;;;;;9.33;7.00;;;;;;;;5142395;27;45708;-75
2021/08/01 07:48:36;;;;;;;;;5.00;5.00;;;;;;;;5141958;27;45915;-75
2021/08/01 07:51:01;;;;;;;;;5.00;4.33;;;;;;;;5142635;27;44607;-75
2021/08/01 07:53:26;;;;;;;;;4.67;4.67;;;;;;;;5143207;27;45030;-76
2021/08/01 07:55:52;;;;;;;;;5.00;4.00;;;;;;;;5142528;27;46001;-75
2021/08/01 07:58:17;;;;;;;;;5.33;4.33;;;;;;;;5141716;27;45571;-75
2021/08/01 08:00:42;;;;;;;;;2.67;2.67;;;;;;;;5140551;27;46135;-75
2021/08/01 08:03:07;;;;;;;;;5.67;5.67;;;;;;;;5140066;27;45543;-75
2021/08/01 08:05:33;;;;;;;;;5.33;5.33;;;;;;;;5142324;27;44831;-75
2021/08/01 08:07:58;;;;;;;;;6.00;4.33;;;;;;;;5140254;27;47923;-75
2021/08/01 08:10:23;;;;;;;;;6.00;4.67;;;;;;;;5140208;27;44633;-75
2021/08/01 08:12:48;;;;;;;;;5.00;4.33;;;;;;;;5141937;27;45248;-75
2021/08/01 08:15:13;;;;;;;;;4.33;4.33;;;;;;;;5142136;27;45426;-75
2021/08/01 08:17:39;;;;;;;;;5.00;4.67;;;;;;;;5141505;27;46163;-75
2021/08/01 08:20:06;;;;;;;;;4.00;4.00;;;;;;;;5142082;27;44683;-75
2021/08/01 08:22:31;;;;;;;;;4.00;4.00;;;;;;;;5142879;27;45199;-75
2021/08/01 08:24:56;;;;;;;;;5.00;4.67;;;;;;;;5140953;27;46092;-75
2021/08/01 08:27:22;;;;;;;;;5.67;4.33;;;;;;;;5141290;27;46081;-75
2021/08/01 08:29:48;;;;;;;;;4.00;4.00;;;;;;;;5145439;27;44801;-75
2021/08/01 08:32:13;;;;;;;;;5.00;5.00;;;;;;;;5162682;27;45023;-76
2021/08/01 08:34:38;;;;;;;;;5.33;5.33;;;;;;;;5162559;27;45436;-76
2021/08/01 08:37:04;;;;;;;;;3.00;3.00;;;;;;;;5160680;27;45146;-75
2021/08/01 08:39:29;;;;;;;;;4.33;4.00;;;;;;;;5161184;27;44780;-76
2021/08/01 08:41:58;;;;;;;;;5.67;5.67;;;;;;;;5161077;27;44709;-75
2021/08/01 08:44:24;;;;;;;;;4.00;4.00;;;;;;;;5160587;27;45062;-75
2021/08/01 08:46:53;;;;;;;;;6.00;4.67;;;;;;;;5153194;27;47303;-74
2021/08/01 08:49:19;;;;;;;;;2.33;2.33;;;;;;;;5146867;27;45243;-74
2021/08/01 08:51:45;;;;;;;;;6.33;6.33;;;;;;;;5148076;27;45273;-74
2021/08/01 08:54:12;;;;;;;;;6.67;3.67;;;;;;;;5149338;27;45350;-74
2021/08/01 08:56:38;;;;;;;;;2.00;2.00;;;;;;;;5147729;27;46520;-74
2021/08/01 08:59:04;;;;;;;;;5.00;5.00;;;;;;;;5147222;27;45247;-75
2021/08/01 09:01:29;;;;;;;;;3.67;3.67;;;;;;;;5148579;27;45313;-75
2021/08/01 09:03:54;;;;;;;;;4.00;4.00;;;;;;;;5151224;27;45284;-75
2021/08/01 09:06:19;;;;;;;;;5.00;5.00;;;;;;;;5147101;27;45235;-74
2021/08/01 09:08:45;;;;;;;;;4.00;4.00;;;;;;;;5146824;27;45293;-75
2021/08/01 09:11:10;;;;;;;;;2.67;2.33;;;;;;;;5145606;27;45332;-75
2021/08/01 09:13:44;;;;;;;;;3.67;3.67;;;;;;;;5150307;27;45182;-76
2021/08/01 09:16:09;;;;;;;;;5.00;4.00;;;;;;;;5156782;27;45207;-75
2021/08/01 09:18:35;;;;;;;;;6.00;5.33;;;;;;;;5160383;27;44666;-76
2021/08/01 09:21:00;;;;;;;;;4.00;4.00;;;;;;;;5158969;27;45196;-75
2021/08/01 09:23:25;;;;;;;;;5.33;5.33;;;;;;;;5158645;27;45948;-76
2021/08/01 09:25:58;;;;;;;;;3.33;3.00;;;;;;;;5161540;27;45211;-75
2021/08/01 09:28:26;;;;;;;;;3.00;3.00;;;;;;;;5159615;27;45299;-76
2021/08/01 09:30:56;;;;;;;;;2.33;2.33;;;;;;;;5159579;27;45301;-76
2021/08/01 09:33:27;;;;;;;;;4.00;4.00;;;;;;;;5159979;27;45127;-77
2021/08/01 09:36:03;;;;;;;;;4.00;3.33;;;;;;;;5157774;27;45446;-75
2021/08/01 09:38:32;;;;;;;;;4.00;4.00;;;;;;;;5160682;27;44704;-76
2021/08/01 09:41:03;;;;;;;;;4.33;3.00;;;;;;;;5161354;27;44666;-75
2021/08/01 09:43:28;;;;;;;;;0.00;0.00;;;;;;;;5159424;27;44681;-75
2021/08/01 09:45:57;;;;;;;;;4.00;4.00;;;;;;;;5157408;27;46507;-76
2021/08/01 09:48:22;;;;;;;;;5.67;5.67;;;;;;;;5156662;27;46340;-75
2021/08/01 09:51:05;;;;;;;;;6.00;6.00;;;;;;;;5156235;27;45280;-75
2021/08/01 09:53:30;;;;;;;;;2.67;2.67;;;;;;;;5157010;27;45157;-76
2021/08/01 09:56:08;;;;;;;;;3.67;3.67;;;;;;;;5161633;27;45572;-76
2021/08/01 09:58:36;;;;;;;;;3.00;2.67;;;;;;;;5155321;27;45293;-75
2021/08/01 10:01:01;;;;;;;;;2.00;2.00;;;;;;;;5159663;27;45135;-76
2021/08/01 10:03:35;;;;;;;;;2.33;2.33;;;;;;;;5160536;27;45028;-75
2021/08/01 10:06:07;;;;;;;;;2.33;1.33;;;;;;;;5160426;27;47171;-75
2021/08/01 10:08:42;;;;;;;;;3.00;2.67;;;;;;;;5156838;27;45246;-75
2021/08/01 10:11:12;;;;;;;;;3.00;3.00;;;;;;;;5155656;27;45320;-75
2021/08/01 10:13:38;;;;;;;;;2.00;2.00;;;;;;;;5158800;27;45153;-76
2021/08/01 10:16:03;;;;;;;;;4.00;2.00;;;;;;;;5158855;27;45182;-75
2021/08/01 10:18:29;;;;;;;;;1.00;1.00;;;;;;;;5160215;27;46055;-76
2021/08/01 10:20:55;;;;;;;;;4.00;3.00;;;;;;;;5161868;27;44539;-75
2021/08/01 10:23:20;;;;;;;;;2.00;2.00;;;;;;;;5158513;27;45347;-77
2021/08/01 10:25:46;;;;;;;;;2.00;2.00;;;;;;;;5158165;27;45359;-76
2021/08/01 10:28:12;;;;;;;;;4.67;4.67;;;;;;;;5159145;27;45238;-75
2021/08/01 10:30:38;;;;;;;;;11.33;10.33;;;;;;;;5161602;27;44726;-75
2021/08/01 10:33:05;;;;;;;;;2.67;2.67;;;;;;;;5162670;27;44757;-75
2021/08/01 10:35:33;;;;;;;;;5.00;5.00;;;;;;;;5161072;27;48053;-75
2021/08/01 10:38:02;;;;;;;;;3.00;3.00;;;;;;;;5163098;27;44655;-76
2021/08/01 10:40:29;;;;;;;;;2.33;2.33;;;;;;;;5162428;27;44631;-76
2021/08/01 10:42:58;;;;;;;;;2.00;2.00;;;;;;;;5158841;27;45293;-76
2021/08/01 10:45:24;;;;;;;;;2.00;2.00;;;;;;;;5164269;27;45484;-75
2021/08/01 10:47:53;;;;;;;;;3.00;2.00;;;;;;;;5165706;27;44620;-75
2021/08/01 10:50:21;;;;;;;;;1.00;1.00;;;;;;;;5165277;27;44636;-75
2021/08/01 10:52:47;;;;;;;;;2.67;1.67;;;;;;;;5161629;27;45517;-75
2021/08/01 10:55:22;;;;;;;;;2.00;2.00;;;;;;;;5162730;27;45293;-76
2021/08/01 10:58:23;;;;;;;;;1.33;1.00;;;;;;;;5164154;27;44756;-76
2021/08/01 11:00:54;;;;;;;;;2.33;1.33;;;;;;;;5099663;27;45499;-76
2021/08/01 11:03:19;;;;;;;;;2.33;2.33;;;;;;;;5155936;27;44797;-76
2021/08/01 11:05:44;;;;;;;;;0.67;0.67;;;;;;;;5160401;27;46499;-75
2021/08/01 11:08:10;;;;;;;;;2.00;1.00;;;;;;;;5163917;27;45188;-75
2021/08/01 11:10:35;;;;;;;;;1.33;1.33;;;;;;;;5162844;27;45309;-76
2021/08/01 11:13:20;;;;;;;;;1.33;1.33;;;;;;;;5160741;27;45239;-75
2021/08/01 11:15:46;;;;;;;;;1.00;1.00;;;;;;;;5159349;27;45326;-76
2021/08/01 11:18:11;;;;;;;;;1.00;1.00;;;;;;;;5162478;27;45260;-76
2021/08/01 11:20:37;;;;;;;;;2.00;2.00;;;;;;;;5159227;27;44715;-76
2021/08/01 11:23:05;;;;;;;;;0.00;0.00;;;;;;;;5161192;27;45215;-75
2021/08/01 11:25:34;;;;;;;;;2.67;1.33;;;;;;;;5160970;27;45223;-75
2021/08/01 11:28:15;;;;;;;;;3.00;3.00;;;;;;;;5159921;27;45240;-75
2021/08/01 11:30:49;;;;;;;;;2.00;0.00;;;;;;;;5147968;27;44631;-75
2021/08/01 11:33:27;;;;;;;;;1.67;1.67;;;;;;;;5138263;27;45355;-75
2021/08/01 11:36:18;;;;;;;;;1.33;1.33;;;;;;;;5134822;27;47169;-75
2021/08/01 11:38:52;;;;;;;;;1.00;0.00;;;;;;;;5133804;27;45377;-77
2021/08/01 11:41:30;;;;;;;;;0.00;0.00;;;;;;;;5135858;27;45323;-78
2021/08/01 11:44:01;;;;;;;;;0.00;0.00;;;;;;;;5138984;27;44887;-75
2021/08/01 11:46:27;;;;;;;;;4.00;3.00;;;;;;;;5140504;27;45299;-76
2021/08/01 11:49:02;;;;;;;;;3.00;3.00;;;;;;;;5139202;27;45398;-75
2021/08/01 11:51:27;;;;;;;;;2.00;2.00;;;;;;;;5138309;27;44706;-75
2021/08/01 11:53:53;;;;;;;;;0.00;0.00;;;;;;;;5137908;27;45233;-75
2021/08/01 11:56:19;;;;;;;;;0.00;0.00;;;;;;;;5134091;27;45281;-77
2021/08/01 11:58:44;;;;;;;;;1.00;0.00;;;;;;;;5140991;27;44708;-76
2021/08/01 12:01:10;;;;;;;;;0.00;0.00;;;;;;;;5142838;27;44813;-77
2021/08/01 12:03:36;;;;;;;;;1.67;0.00;;;;;;;;5141326;27;44770;-76
2021/08/01 12:06:01;;;;;;;;;0.00;0.00;;;;;;;;5143100;27;47136;-76
2021/08/01 12:08:31;;;;;;;;;0.00;0.00;;;;;;;;5142132;27;45434;-76
2021/08/01 12:11:06;;;;;;;;;1.00;1.00;;;;;;;;5140860;27;44695;-76
2021/08/01 12:13:31;;;;;;;;;1.00;1.00;;;;;;;;5141948;27;45312;-76
2021/08/01 12:15:56;;;;;;;;;0.00;0.00;;;;;;;;5139341;27;45308;-75
2021/08/01 12:18:25;;;;;;;;;0.00;0.00;;;;;;;;5140021;27;45356;-75
2021/08/01 12:20:50;;;;;;;;;0.00;0.00;;;;;;;;5137994;27;45203;-75
2021/08/01 12:23:17;;;;;;;;;1.00;1.00;;;;;;;;5137620;27;46372;-76
2021/08/01 12:25:48;;;;;;;;;0.00;0.00;;;;;;;;5134999;27;46152;-76
2021/08/01 12:28:13;;;;;;;;;2.00;1.00;;;;;;;;5137743;27;45285;-75
2021/08/01 12:30:44;;;;;;;;;0.00;0.00;;;;;;;;5137525;27;45300;-76
2021/08/01 12:33:09;;;;;;;;;0.00;0.00;;;;;;;;5136781;27;45348;-76
2021/08/01 12:35:39;;;;;;;;;1.00;1.00;;;;;;;;5138630;27;46733;-75
2021/08/01 12:38:05;;;;;;;;;0.67;0.00;;;;;;;;5139367;27;44635;-76
2021/08/01 12:40:30;;;;;;;;;0.00;0.00;;;;;;;;5138826;27;44644;-76
2021/08/01 12:42:57;;;;;;;;;0.00;0.00;;;;;;;;5136840;27;45621;-76
2021/08/01 12:45:29;;;;;;;;;0.00;0.00;;;;;;;;5137333;27;45079;-76
2021/08/01 12:47:54;;;;;;;;;2.00;0.67;;;;;;;;5138887;27;44650;-76
2021/08/01 12:50:21;;;;;;;;;0.00;0.00;;;;;;;;5138397;27;44695;-75
2021/08/01 12:52:48;;;;;;;;;0.67;0.67;;;;;;;;5140705;27;45441;-76
2021/08/01 12:55:14;;;;;;;;;0.00;0.00;;;;;;;;5135662;27;45420;-78
2021/08/01 12:57:56;;;;;;;;;0.00;0.00;;;;;;;;5134535;27;45209;-77
2021/08/01 13:00:24;;;;;;;;;0.00;0.00;;;;;;;;5138976;27;44603;-78
2021/08/01 13:02:53;;;;;;;;;1.00;0.00;;;;;;;;5141064;27;44600;-75
2021/08/01 13:05:22;;;;;;;;;0.00;0.00;;;;;;;;5141060;27;46189;-75
2021/08/01 13:07:48;;;;;;;;;0.00;0.00;;;;;;;;5138684;27;44699;-76
2021/08/01 13:10:14;;;;;;;;;1.00;1.00;;;;;;;;5137145;27;45333;-78
2021/08/01 13:12:39;;;;;;;;;1.00;1.00;;;;;;;;5136081;27;45227;-74
2021/08/01 13:15:35;;;;;;;;;2.00;2.00;;;;;;;;5135068;27;45110;-75
2021/08/01 13:18:01;;;;;;;;;0.00;0.00;;;;;;;;5132786;27;45352;-75
2021/08/01 13:20:37;;;;;;;;;0.00;0.00;;;;;;;;5132312;27;45218;-78
2021/08/01 13:23:22;;;;;;;;;0.33;0.33;;;;;;;;5132317;27;46490;-78
2021/08/01 13:25:47;;;;;;;;;2.00;2.00;;;;;;;;5127855;27;46377;-76
2021/08/01 13:28:12;;;;;;;;;1.00;1.00;;;;;;;;5132190;27;45234;-77
2021/08/01 13:30:38;;;;;;;;;1.00;0.00;;;;;;;;5148106;27;44691;-77
2021/08/01 13:33:08;;;;;;;;;4.00;2.00;;;;;;;;5151565;27;45127;-77
2021/08/01 13:35:34;;;;;;;;;1.00;1.00;;;;;;;;5155183;27;45248;-76
2021/08/01 13:38:00;;;;;;;;;1.33;1.33;;;;;;;;5160334;27;45676;-75
2021/08/01 13:40:31;;;;;;;;;0.00;0.00;;;;;;;;5155412;27;45325;-75
2021/08/01 13:42:57;;;;;;;;;3.00;1.00;;;;;;;;5151091;27;45203;-77
2021/08/01 13:45:26;;;;;;;;;1.00;1.00;;;;;;;;5150613;27;48525;-75
2021/08/01 13:47:52;;;;;;;;;1.33;1.33;;;;;;;;5156737;27;45357;-76
2021/08/01 13:50:18;;;;;;;;;1.00;1.00;;;;;;;;5149423;27;45234;-76
2021/08/01 13:52:44;;;;;;;;;2.00;2.00;;;;;;;;5151542;27;47332;-76
2021/08/01 13:55:10;;;;;;;;;2.67;2.67;;;;;;;;5150346;27;46791;-75
2021/08/01 13:57:35;;;;;;;;;2.00;2.00;;;;;;;;5154776;27;44681;-76
2021/08/01 14:00:01;;;;;;;;;1.00;1.00;;;;;;;;5154461;27;45301;-76
2021/08/01 14:02:27;;;;;;;;;3.00;2.00;;;;;;;;5150779;27;45127;-78
2021/08/01 14:04:53;;;;;;;;;1.00;1.00;;;;;;;;5154677;27;45003;-77
2021/08/01 14:07:19;;;;;;;;;1.00;1.00;;;;;;;;5158469;27;44938;-75
2021/08/01 14:09:44;;;;;;;;;1.33;1.33;;;;;;;;5157711;27;44614;-76
2021/08/01 14:12:10;;;;;;;;;1.33;1.33;;;;;;;;5159730;27;45168;-76
2021/08/01 14:14:35;;;;;;;;;1.00;1.00;;;;;;;;5151039;27;45189;-76
2021/08/01 14:17:01;;;;;;;;;3.33;2.33;;;;;;;;5152635;27;44760;-76
2021/08/01 14:19:27;;;;;;;;;0.00;0.00;;;;;;;;5154349;27;44674;-76
2021/08/01 14:21:52;;;;;;;;;2.33;1.00;;;;;;;;5152092;27;45323;-78
2021/08/01 14:24:18;;;;;;;;;1.00;1.00;;;;;;;;5154954;27;47422;-75
2021/08/01 14:26:45;;;;;;;;;2.00;2.00;;;;;;;;5155895;27;45183;-77
2021/08/01 14:29:11;;;;;;;;;1.00;1.00;;;;;;;;5153391;27;45366;-76
2021/08/01 14:31:37;;;;;;;;;0.00;0.00;;;;;;;;5128114;27;45523;-77
2021/08/01 14:34:02;;;;;;;;;1.00;1.00;;;;;;;;5130949;27;45245;-77
2021/08/01 14:36:29;;;;;;;;;1.00;1.00;;;;;;;;5132173;27;45272;-76